Terminal Aerodrome Forecast
Issued by NWS

Home | Current Version | Previous Version | Text Only | Print | Product List | Glossary On
Versions: 1 2 3 4 5 6 7 8 9 10 11 12 13 14 15 16 17 18 19 20 21
000
FTUS42 KMLB 202100 AAA
TAFISM
TAF AMD
KISM 202146Z 2022/2118 33008KT P6SM BKN030
      TEMPO 2023/2101 BKN035
     FM210600 36007KT P6SM BKN012 OVC020
     FM211400 35010KT P6SM SCT015 SCT035=

USA.gov is the U.S. government's official web portal to all federal, state and local government web resources and services.